createdAt,value
2018-02-01T04:31:36.403Z,1.50
2018-02-01T04:34:04.284Z,0.73
2018-02-01T04:36:32.136Z,0.70
2018-02-01T04:39:00.001Z,0.75
2018-02-01T04:41:27.865Z,0.50
2018-02-01T04:43:55.732Z,0.60
2018-02-01T04:46:23.597Z,0.70
2018-02-01T04:48:51.359Z,0.70
2018-02-01T04:51:19.125Z,0.50
2018-02-01T04:53:47.090Z,0.70
2018-02-01T04:56:14.955Z,0.73
2018-02-01T04:58:42.820Z,0.77
2018-02-01T05:01:10.826Z,1.30
2018-02-01T05:03:39.311Z,1.00
2018-02-01T05:06:07.850Z,0.90
2018-02-01T05:08:35.613Z,1.05
2018-02-01T05:11:03.478Z,0.75
2018-02-01T05:13:31.342Z,0.70
2018-02-01T05:15:59.208Z,0.75
2018-02-01T05:18:27.011Z,0.85
2018-02-01T05:20:55.656Z,0.75
2018-02-01T05:23:23.418Z,0.70
2018-02-01T05:25:51.119Z,0.70
2018-02-01T05:28:19.661Z,0.60
2018-02-01T05:30:47.426Z,0.80
2018-02-01T05:33:15.289Z,1.00
2018-02-01T05:35:43.064Z,0.90
2018-02-01T05:38:10.920Z,1.40
2018-02-01T05:40:38.723Z,3.28
2018-02-01T05:43:07.365Z,1.60
2018-02-01T05:45:35.230Z,2.20
2018-02-01T05:48:03.097Z,1.50
2018-02-01T05:50:30.859Z,4.10
2018-02-01T05:52:58.724Z,5.05
2018-02-01T05:55:26.589Z,6.10
2018-02-01T05:57:54.454Z,6.40
2018-02-01T06:00:24.163Z,1.90
2018-02-01T06:02:52.131Z,0.95
2018-02-01T06:05:19.996Z,1.00
2018-02-01T06:07:47.963Z,1.00
2018-02-01T06:10:15.830Z,1.17
2018-02-01T06:12:43.592Z,2.60
2018-02-01T06:15:11.559Z,3.03
2018-02-01T06:17:39.323Z,2.45
2018-02-01T06:20:07.085Z,2.87
2018-02-01T06:22:35.054Z,3.40
2018-02-01T06:25:02.918Z,2.95
2018-02-01T06:27:30.784Z,2.60
2018-02-01T06:29:58.649Z,1.87
2018-02-01T06:32:26.412Z,2.10
2018-02-01T06:34:54.175Z,2.05
2018-02-01T06:37:22.041Z,1.83
2018-02-01T06:39:49.805Z,1.70
2018-02-01T06:42:17.607Z,2.00
2018-02-01T06:44:46.251Z,1.92
2018-02-01T06:47:14.116Z,1.80
2018-02-01T06:49:41.882Z,2.17
2018-02-01T06:52:09.848Z,1.73
2018-02-01T06:54:37.613Z,2.12
2018-02-01T06:57:05.577Z,2.15
2018-02-01T06:59:33.340Z,2.05
2018-02-01T07:02:01.102Z,2.30
2018-02-01T07:04:29.070Z,2.35
2018-02-01T07:06:56.991Z,1.73
2018-02-01T07:09:25.007Z,1.73
2018-02-01T07:11:53.641Z,2.20
2018-02-01T07:14:21.452Z,2.00
2018-02-01T07:16:49.319Z,1.85
2018-02-01T07:19:17.183Z,2.10
2018-02-01T07:21:45.152Z,2.65
2018-02-01T07:24:13.017Z,2.00
2018-02-01T07:26:40.780Z,2.70
2018-02-01T07:29:08.685Z,3.00
2018-02-01T07:31:37.226Z,3.17
2018-02-01T07:34:04.927Z,3.03
2018-02-01T07:36:33.472Z,3.17
2018-02-01T07:39:01.335Z,2.85
2018-02-01T07:41:29.200Z,2.47
2018-02-01T07:43:56.963Z,3.00
2018-02-01T07:46:24.726Z,2.70
2018-02-01T07:48:54.689Z,2.70
2018-02-01T07:51:24.766Z,2.75
2018-02-01T07:53:53.135Z,2.40
2018-02-01T07:56:20.855Z,3.45
2018-02-01T07:58:48.556Z,2.75
2018-02-01T08:01:16.359Z,2.55
2018-02-01T08:03:44.806Z,2.83
2018-02-01T08:06:12.540Z,2.50
2018-02-01T08:08:40.302Z,2.50
2018-02-01T08:11:08.018Z,2.83
2018-02-01T08:13:36.491Z,3.00
2018-02-01T08:16:04.212Z,2.15
2018-02-01T08:18:31.891Z,2.30
2018-02-01T08:20:59.609Z,1.85
2018-02-01T08:23:27.318Z,2.15
2018-02-01T08:25:54.991Z,2.45
2018-02-01T08:28:22.742Z,2.75
2018-02-01T08:30:50.424Z,2.45
2018-02-01T08:33:18.101Z,2.28
2018-02-01T08:35:46.625Z,2.75
2018-02-01T08:38:14.327Z,2.50
2018-02-01T08:40:42.031Z,2.80
2018-02-01T08:43:09.773Z,2.37
2018-02-01T08:45:37.446Z,2.85
2018-02-01T08:48:05.119Z,2.55
2018-02-01T08:50:32.834Z,3.40
2018-02-01T08:53:00.531Z,4.00
2018-02-01T08:55:28.274Z,4.80
2018-02-01T08:57:56.742Z,6.30
2018-02-01T09:00:25.188Z,4.93
2018-02-01T09:02:52.910Z,5.25
2018-02-01T09:05:20.606Z,5.12
2018-02-01T09:07:48.326Z,4.37
2018-02-01T09:10:16.023Z,4.30
2018-02-01T09:12:43.718Z,3.12
2018-02-01T09:15:11.467Z,2.90
2018-02-01T09:17:39.159Z,2.70
2018-02-01T09:20:07.623Z,4.00
2018-02-01T09:22:35.349Z,2.40
2018-02-01T09:25:03.047Z,2.55
2018-02-01T09:27:30.723Z,3.15
2018-02-01T09:29:59.231Z,2.83
2018-02-01T09:32:26.915Z,4.25
2018-02-01T09:34:54.591Z,2.95
2018-02-01T09:37:22.334Z,3.60
2018-02-01T09:39:50.019Z,3.62
2018-02-01T09:42:17.774Z,3.80
2018-02-01T09:44:45.511Z,4.60
2018-02-01T09:47:13.211Z,3.62
2018-02-01T09:49:40.891Z,3.20
2018-02-01T09:52:08.583Z,2.95
2018-02-01T09:54:36.319Z,2.75
2018-02-01T09:57:04.763Z,2.85
2018-02-01T09:59:32.435Z,3.47
2018-02-01T10:02:00.175Z,2.78
2018-02-01T10:04:27.855Z,3.17
2018-02-01T10:06:55.555Z,2.58
2018-02-01T10:09:23.307Z,2.50
2018-02-01T10:11:51.766Z,4.05
2018-02-01T10:14:19.476Z,2.35
2018-02-01T10:16:47.217Z,2.78
2018-02-01T10:19:15.679Z,4.22
2018-02-01T10:21:43.351Z,3.25
2018-02-01T10:24:11.867Z,3.92
2018-02-01T10:26:39.543Z,3.40
2018-02-01T10:29:07.214Z,2.87
2018-02-01T10:31:35.080Z,3.30
2018-02-01T10:34:02.946Z,2.92
2018-02-01T10:36:30.709Z,2.40
2018-02-01T10:38:58.473Z,2.65
2018-02-01T10:41:26.336Z,2.45
2018-02-01T10:43:54.099Z,2.35
2018-02-01T10:46:21.863Z,2.33
2018-02-01T10:48:49.738Z,2.33
2018-02-01T10:51:17.543Z,2.37
2018-02-01T10:53:45.458Z,2.97
2018-02-01T10:56:17.829Z,2.90
2018-02-01T10:58:45.694Z,2.50
2018-02-01T11:01:13.662Z,3.00
2018-02-01T11:03:41.431Z,2.97
2018-02-01T11:06:10.010Z,2.78
2018-02-01T11:08:37.719Z,3.03
2018-02-01T11:11:06.160Z,3.47
2018-02-01T11:13:33.909Z,3.40
2018-02-01T11:16:01.639Z,3.40
2018-02-01T11:18:29.343Z,3.20
2018-02-01T11:20:57.040Z,3.33
2018-02-01T11:23:25.485Z,3.47
2018-02-01T11:25:53.318Z,3.60
2018-02-01T11:28:21.027Z,3.22
2018-02-01T11:30:48.727Z,3.35
2018-02-01T11:33:16.439Z,2.67
2018-02-01T11:35:44.131Z,2.45
2018-02-01T11:38:12.594Z,3.28
2018-02-01T11:40:41.063Z,2.10
2018-02-01T11:43:08.785Z,2.12
2018-02-01T11:45:36.499Z,2.62
2018-02-01T11:48:05.766Z,2.12
2018-02-01T11:50:34.275Z,3.08
2018-02-01T11:53:02.734Z,2.40
2018-02-01T11:55:30.475Z,2.20
2018-02-01T11:57:58.153Z,2.30
2018-02-01T12:00:25.827Z,2.30
2018-02-01T12:02:53.519Z,2.25
2018-02-01T12:05:22.019Z,2.55
2018-02-01T12:07:49.699Z,3.03
2018-02-01T12:10:17.389Z,2.80
2018-02-01T12:12:45.087Z,3.55
2018-02-01T12:15:12.806Z,3.15
2018-02-01T12:17:40.528Z,3.35
2018-02-01T12:20:08.239Z,2.25
2018-02-01T12:22:35.980Z,2.22
2018-02-01T12:25:03.663Z,2.45
2018-02-01T12:27:31.335Z,2.67
2018-02-01T12:29:59.027Z,3.00
2018-02-01T12:32:26.864Z,2.78
2018-02-01T12:34:55.326Z,2.83
2018-02-01T12:37:23.022Z,2.90
2018-02-01T12:39:50.739Z,3.10
2018-02-01T12:42:18.435Z,2.47
2018-02-01T12:44:46.899Z,2.30
2018-02-01T12:47:14.618Z,2.47
2018-02-01T12:49:42.317Z,2.47
2018-02-01T12:52:09.987Z,3.15
2018-02-01T12:54:37.767Z,2.47
2018-02-01T12:57:06.226Z,2.45
2018-02-01T12:59:33.919Z,2.00
2018-02-01T13:02:01.639Z,2.10
2018-02-01T13:04:29.339Z,2.20
2018-02-01T13:06:57.039Z,2.10
2018-02-01T13:09:24.731Z,1.90
2018-02-01T13:11:52.407Z,2.65
2018-02-01T13:14:20.890Z,2.30
2018-02-01T13:16:49.351Z,1.98
2018-02-01T13:19:18.684Z,2.25
2018-02-01T13:21:46.391Z,2.10
2018-02-01T13:24:14.091Z,2.30
2018-02-01T13:26:42.579Z,2.05
2018-02-01T13:29:11.026Z,3.45
2018-02-01T13:31:38.725Z,2.40
2018-02-01T13:34:06.738Z,2.00
2018-02-01T13:36:34.603Z,2.00
2018-02-01T13:39:02.367Z,2.17
2018-02-01T13:41:30.231Z,2.55
2018-02-01T13:43:57.943Z,1.60
2018-02-01T13:46:25.858Z,2.08
2018-02-01T13:48:53.622Z,2.10
2018-02-01T13:51:21.487Z,2.12
2018-02-01T13:53:49.353Z,2.08
2018-02-01T13:56:17.116Z,2.40
2018-02-01T13:58:44.982Z,2.20
2018-02-01T14:01:12.743Z,2.78
2018-02-01T14:03:40.609Z,2.87
2018-02-01T14:06:08.515Z,2.30
2018-02-01T14:08:37.158Z,2.65
2018-02-01T14:11:04.924Z,2.67
2018-02-01T14:13:32.831Z,2.47
2018-02-01T14:16:01.370Z,2.20
2018-02-01T14:18:29.133Z,2.10
2018-02-01T14:20:56.998Z,2.00
2018-02-01T14:23:24.760Z,1.90
2018-02-01T14:25:52.625Z,2.45
2018-02-01T14:28:20.334Z,2.15
2018-02-01T14:30:48.868Z,2.67
2018-02-01T14:33:16.839Z,2.80
2018-02-01T14:35:44.703Z,2.45
2018-02-01T14:38:12.575Z,3.67
2018-02-01T14:40:40.487Z,3.70
2018-02-01T14:43:08.404Z,3.00
2018-02-01T14:45:36.162Z,2.17
2018-02-01T14:48:04.131Z,2.83
2018-02-01T14:50:31.895Z,2.22
2018-02-01T14:52:59.759Z,2.00
2018-02-01T14:55:27.484Z,1.90
2018-02-01T14:57:55.171Z,1.60
2018-02-01T15:00:22.852Z,1.48
2018-02-01T15:02:50.574Z,1.67
2018-02-01T15:05:18.251Z,1.52
2018-02-01T15:07:45.951Z,1.60
2018-02-01T15:10:13.642Z,1.20
2018-02-01T15:12:41.330Z,1.92
2018-02-01T15:15:09.090Z,1.80
2018-02-01T15:17:36.739Z,1.70
2018-02-01T15:20:04.432Z,2.20
2018-02-01T15:22:32.177Z,1.60
2018-02-01T15:24:59.933Z,1.80
2018-02-01T15:27:27.646Z,1.90
2018-02-01T15:29:55.315Z,1.42
2018-02-01T15:32:23.778Z,1.80
2018-02-01T15:34:51.485Z,1.73
2018-02-01T15:37:19.204Z,1.75
2018-02-01T15:39:46.880Z,1.67
2018-02-01T15:42:15.425Z,2.15
2018-02-01T15:44:43.291Z,2.05
2018-02-01T15:47:11.053Z,2.28
2018-02-01T15:49:38.754Z,1.70
2018-02-01T15:52:07.239Z,2.28
2018-02-01T15:54:35.680Z,2.10
2018-02-01T15:57:03.441Z,2.00
2018-02-01T15:59:31.359Z,2.15
2018-02-01T16:01:59.169Z,1.62
2018-02-01T16:04:29.084Z,2.65
2018-02-01T16:06:59.430Z,2.65
2018-02-01T16:09:27.475Z,2.83
2018-02-01T16:11:55.440Z,2.47
2018-02-01T16:14:23.204Z,2.22
2018-02-01T16:16:51.069Z,2.55
2018-02-01T16:19:18.936Z,3.20
2018-02-01T16:21:46.801Z,2.65
2018-02-01T16:24:14.766Z,2.30
2018-02-01T16:26:42.530Z,2.70
2018-02-01T16:29:10.243Z,2.55
2018-02-01T16:31:38.056Z,2.47
2018-02-01T16:34:05.922Z,2.62
2018-02-01T16:36:33.786Z,2.40
2018-02-01T16:39:01.652Z,2.70
2018-02-01T16:41:29.570Z,3.53
2018-02-01T16:43:57.383Z,4.90
2018-02-01T16:46:25.964Z,10.57
2018-02-01T16:48:53.931Z,4.20
2018-02-01T16:51:21.797Z,2.95
2018-02-01T16:53:49.561Z,3.00
2018-02-01T16:56:19.924Z,3.62
2018-02-01T16:58:48.057Z,3.37
2018-02-01T17:01:15.920Z,4.80
2018-02-01T17:03:44.304Z,4.00
2018-02-01T17:06:12.777Z,3.50
2018-02-01T17:08:42.179Z,2.92
2018-02-01T17:11:10.863Z,4.15
2018-02-01T17:13:40.855Z,5.97
2018-02-01T17:16:09.076Z,8.70
2018-02-01T17:18:37.020Z,7.47
2018-02-01T17:21:05.488Z,9.00
2018-02-01T17:23:35.003Z,8.00
2018-02-01T17:26:03.628Z,6.60
2018-02-01T17:28:31.883Z,7.20
2018-02-01T17:30:59.934Z,6.68
2018-02-01T17:33:29.184Z,5.35
2018-02-01T17:35:57.094Z,4.18
2018-02-01T17:38:25.074Z,4.47
2018-02-01T17:40:52.932Z,3.95
2018-02-01T17:43:20.792Z,3.95
2018-02-01T17:45:48.661Z,4.10
2018-02-01T17:48:16.525Z,3.22
2018-02-01T17:50:44.392Z,3.33
2018-02-01T17:53:12.255Z,3.20
2018-02-01T17:55:40.018Z,3.35
2018-02-01T17:58:07.985Z,3.22
2018-02-01T18:00:35.702Z,4.30
2018-02-01T18:03:03.510Z,3.28
2018-02-01T18:05:31.507Z,3.10
2018-02-01T18:08:00.061Z,4.12
2018-02-01T18:10:27.927Z,3.28
2018-02-01T18:12:55.689Z,3.17
2018-02-01T18:15:23.553Z,3.30
2018-02-01T18:17:51.420Z,3.90
2018-02-01T18:20:19.288Z,3.10
2018-02-01T18:22:47.047Z,3.30
2018-02-01T18:25:14.913Z,2.97
2018-02-01T18:27:42.777Z,2.95
2018-02-01T18:30:10.541Z,3.30
2018-02-01T18:32:38.407Z,3.60
2018-02-01T18:35:06.169Z,3.60
2018-02-01T18:37:33.931Z,3.80
2018-02-01T18:40:01.900Z,3.83
2018-02-01T18:42:29.765Z,3.33
2018-02-01T18:44:57.631Z,3.20
2018-02-01T18:47:25.497Z,2.70
2018-02-01T18:49:53.361Z,2.75
2018-02-01T18:52:21.178Z,2.55
2018-02-01T18:54:49.855Z,3.83
2018-02-01T18:57:18.395Z,3.47
2018-02-01T18:59:46.256Z,2.67
2018-02-01T19:02:14.020Z,3.33
2018-02-01T19:04:41.885Z,3.95
2018-02-01T19:07:09.749Z,3.28
2018-02-01T19:09:37.471Z,3.85
2018-02-01T19:12:05.275Z,2.97
2018-02-01T19:14:33.243Z,3.08
2018-02-01T19:17:01.005Z,2.62
2018-02-01T19:19:28.703Z,2.70
2018-02-01T19:21:57.287Z,2.85
2018-02-01T19:24:25.933Z,2.55
2018-02-01T19:26:53.900Z,3.20
2018-02-01T19:29:21.663Z,2.80
2018-02-01T19:31:49.426Z,2.92
2018-02-01T19:34:17.394Z,2.50
2018-02-01T19:36:45.156Z,3.58
2018-02-01T19:39:13.696Z,2.47
2018-02-01T19:41:41.502Z,2.95
2018-02-01T19:44:09.266Z,2.97
2018-02-01T19:46:37.083Z,3.60
2018-02-01T19:49:04.832Z,3.30
2018-02-01T19:51:33.475Z,3.58
2018-02-01T19:54:01.341Z,3.42
2018-02-01T19:56:29.055Z,4.97
2018-02-01T19:58:57.010Z,3.60
2018-02-01T20:01:25.653Z,4.00
2018-02-01T20:03:55.172Z,5.37
2018-02-01T20:06:23.842Z,5.95
2018-02-01T20:08:51.550Z,3.85
2018-02-01T20:11:20.193Z,3.08
2018-02-01T20:13:48.768Z,3.70
2018-02-01T20:16:16.532Z,4.05
2018-02-01T20:18:44.396Z,3.80
2018-02-01T20:21:12.263Z,3.25
2018-02-01T20:23:40.075Z,3.45
2018-02-01T20:26:07.890Z,3.72
2018-02-01T20:28:35.755Z,4.00
2018-02-01T20:31:03.518Z,3.50
2018-02-01T20:33:31.384Z,3.40
2018-02-01T20:35:59.148Z,3.55
2018-02-01T20:38:27.115Z,3.55
2018-02-01T20:40:54.880Z,3.10
2018-02-01T20:43:22.745Z,3.70
2018-02-01T20:45:50.459Z,4.15
2018-02-01T20:48:18.269Z,3.20
2018-02-01T20:50:46.133Z,3.45
2018-02-01T20:53:14.000Z,2.87
2018-02-01T20:55:41.967Z,3.30
2018-02-01T20:58:09.771Z,2.90
2018-02-01T21:00:38.312Z,3.30
2018-02-01T21:03:06.176Z,2.37
2018-02-01T21:05:34.043Z,3.05
2018-02-01T21:08:01.805Z,2.40
2018-02-01T21:10:30.492Z,2.37
2018-02-01T21:12:59.278Z,2.80
2018-02-01T21:15:27.041Z,3.20
2018-02-01T21:17:54.905Z,2.85
2018-02-01T21:20:22.770Z,2.53
2018-02-01T21:22:50.535Z,2.67
2018-02-01T21:25:18.615Z,3.00
2018-02-01T21:27:46.571Z,2.65
2018-02-01T21:30:14.336Z,2.60
2018-02-01T21:32:42.249Z,2.70
2018-02-01T21:35:10.168Z,3.05
2018-02-01T21:37:37.971Z,3.17
2018-02-01T21:40:07.126Z,2.75
2018-02-01T21:42:34.992Z,2.55
2018-02-01T21:45:02.856Z,3.05
2018-02-01T21:47:30.619Z,3.15
2018-02-01T21:49:58.382Z,3.00
2018-02-01T21:52:26.185Z,3.50
2018-02-01T21:54:54.727Z,3.60
2018-02-01T21:57:22.541Z,3.00
2018-02-01T21:59:50.355Z,2.80
2018-02-01T22:02:18.067Z,3.37
2018-02-01T22:04:45.983Z,3.55
2018-02-01T22:07:13.849Z,3.00
2018-02-01T22:09:41.611Z,3.20
2018-02-01T22:12:09.376Z,2.85
2018-02-01T22:14:37.186Z,3.60
2018-02-01T22:17:05.003Z,3.72
2018-02-01T22:19:32.868Z,2.95
2018-02-01T22:22:00.734Z,3.72
2018-02-01T22:24:28.702Z,2.80
2018-02-01T22:26:56.743Z,3.53
2018-02-01T22:29:25.688Z,2.45
2018-02-01T22:31:54.242Z,3.33
2018-02-01T22:34:22.210Z,2.50
2018-02-01T22:36:49.913Z,2.75
2018-02-01T22:39:18.454Z,2.92
2018-02-01T22:41:46.422Z,3.08
2018-02-01T22:44:14.192Z,2.95
2018-02-01T22:46:41.986Z,2.90
2018-02-01T22:49:10.631Z,3.22
2018-02-01T22:51:38.435Z,3.00
2018-02-01T22:54:07.124Z,3.47
2018-02-01T22:56:35.764Z,3.03
2018-02-01T22:59:03.732Z,3.60
2018-02-01T23:01:31.598Z,2.72
2018-02-01T23:03:59.361Z,3.20
2018-02-01T23:06:27.270Z,3.25
2018-02-01T23:08:55.908Z,3.15
2018-02-01T23:11:23.672Z,3.20
2018-02-01T23:13:51.742Z,2.90
2018-02-01T23:16:19.506Z,3.10
2018-02-01T23:18:47.268Z,3.05
2018-02-01T23:21:15.235Z,2.83
2018-02-01T23:23:42.998Z,3.37
2018-02-01T23:26:10.762Z,2.67
2018-02-01T23:28:38.626Z,3.20
